TimeEST,TemperatureF,Dew PointF,Humidity,Sea Level PressureIn,VisibilityMPH,Wind Direction,Wind SpeedMPH,Gust SpeedMPH,PrecipitationIn,Events,Conditions,WindDirDegrees,DateUTC
12:52 AM,39.0,30.0,70,30.12,10.0,WNW,6.9,-,N/A,,Mostly Cloudy,290,2013-03-08 05:52:00
1:52 AM,41.0,28.9,62,30.12,10.0,NW,13.8,-,N/A,,Overcast,310,2013-03-08 06:52:00
2:52 AM,39.0,28.0,65,30.10,10.0,WNW,15.0,-,N/A,,Scattered Clouds,300,2013-03-08 07:52:00
3:52 AM,39.0,27.0,62,30.11,10.0,NW,18.4,-,N/A,,Scattered Clouds,310,2013-03-08 08:52:00
4:52 AM,37.9,27.0,65,30.12,10.0,WNW,16.1,-,N/A,,Clear,300,2013-03-08 09:52:00
5:15 AM,37.4,26.6,65,30.12,10.0,NW,16.1,-,N/A,,Partly Cloudy,310,2013-03-08 10:15:00
5:52 AM,37.0,26.1,65,30.12,10.0,NW,13.8,-,N/A,,Scattered Clouds,310,2013-03-08 10:52:00
6:52 AM,37.0,27.0,67,30.13,10.0,WNW,9.2,-,N/A,,Scattered Clouds,290,2013-03-08 11:52:00
7:52 AM,39.9,27.0,60,30.13,10.0,WNW,18.4,29.9,N/A,,Scattered Clouds,300,2013-03-08 12:52:00
8:52 AM,39.9,24.1,53,30.13,10.0,NW,23.0,32.2,N/A,,Mostly Cloudy,320,2013-03-08 13:52:00
9:52 AM,41.0,24.1,51,30.13,10.0,NW,21.9,35.7,N/A,,Mostly Cloudy,310,2013-03-08 14:52:00
10:52 AM,43.0,24.1,47,30.12,10.0,NW,24.2,35.7,N/A,,Mostly Cloudy,320,2013-03-08 15:52:00
11:52 AM,44.1,24.1,45,30.12,10.0,NW,21.9,32.2,N/A,,Mostly Cloudy,310,2013-03-08 16:52:00
12:52 PM,48.0,26.1,42,30.10,10.0,WNW,23.0,33.4,N/A,,Mostly Cloudy,300,2013-03-08 17:52:00
1:52 PM,46.9,26.1,44,30.09,10.0,WNW,23.0,31.1,N/A,,Mostly Cloudy,300,2013-03-08 18:52:00
2:52 PM,48.0,26.1,42,30.10,10.0,NW,19.6,28.8,N/A,,Mostly Cloudy,320,2013-03-08 19:52:00
3:52 PM,48.0,26.1,42,30.11,10.0,NW,21.9,27.6,N/A,,Overcast,310,2013-03-08 20:52:00
4:52 PM,48.0,26.1,42,30.13,10.0,NW,21.9,-,N/A,,Overcast,320,2013-03-08 21:52:00
5:52 PM,46.9,26.1,44,30.15,10.0,NW,17.3,-,N/A,,Mostly Cloudy,320,2013-03-08 22:52:00
6:52 PM,46.9,27.0,46,30.17,10.0,NW,15.0,26.5,N/A,,Overcast,310,2013-03-08 23:52:00
7:52 PM,46.9,26.1,44,30.20,10.0,NW,16.1,-,N/A,,Mostly Cloudy,310,2013-03-09 00:52:00
8:52 PM,46.9,26.1,44,30.21,10.0,NNW,16.1,-,N/A,,Overcast,330,2013-03-09 01:52:00
9:52 PM,45.0,27.0,49,30.22,10.0,NW,10.4,-,N/A,,Scattered Clouds,320,2013-03-09 02:52:00
10:52 PM,44.1,26.1,49,30.23,10.0,NW,9.2,-,N/A,,Partly Cloudy,320,2013-03-09 03:52:00
11:52 PM,44.1,25.0,47,30.22,10.0,NW,12.7,-,N/A,,Clear,320,2013-03-09 04:52:00